Pagrindinis puslapis
METAR-TAF:

METAR-TAF

Oro uostai :

Truchiljas, Peru

platuma: 08-06S, ilguma: 079-02W, Aukštis: 26 m

Dabartinis oras

Ataskaita buvo paskelbta 24 minutes, ne 22:00 UTC
Vėjas 9 kt iš Pietų/Pietryčių
Temperatūra 19°C
Drėgmė 83%
Slėgis 1011 hPa
Matomumas: 8000 m
Apsiniaukę ne aukštis 8000 ft

METAR: SPRU 282200Z 15009KT 8000 OVC080 19/16 Q1011 RMK TX20.9 BR QUAD N PP000

Laikas: 17:24 (22:24 UTC)

Prognozė

Ataskaita buvo paskelbta 5 valandos ir 24 minutes, ne 17:00 UTC
Prognozė galioja nuo 28 metu 18 UTC su 29 metu 18 UTC
Vėjas 12 kt iš Pietų
Matomumas: 9000 m
Nuo 29 metu 0500 UTC
Vėjas 5 kt iš Rytų/Pietryčių
Matomumas: 6000 m
Mažai debesys ne aukštis 300 ft
Su prošvaistėmis ne aukštis 4000 ft
Tapsmas
nuo 29 metu 16 UTC su 29 metu 18 UTC
Vėjas 10 kt iš Pietų
Matomumas 10 km arba daugiau
Išsisklaidę debesys ne aukštis 2000 ft

TAF: SPRU 281700Z 2818/2918 18012KT 9000 NSC TX21/2819Z TN16/2911Z FM290500 12005KT 6000 FEW003 BKN040 BECMG 2916/2918 19010KT 9999 SCT020

Orai ataskaitas ir orų prognozės (METAR, TAF).

turimą stotys yra geltonos ir raudonos taškus žemėlapyje.

Perkelti pele per norėdami pamatyti stoties vardą.

Tada spustelėkite, norėdami matyti oro stebėjimo ir prognozės.

Norėdami pakeisti žemėlapį: spustelėkite ant žalios mygtukų su juodo kryžiaus žemyn,; žalią mygtuką su brūkšneliu, jei norite nutolinti; arba žalių rodyklių gretimoms žemėlapius.


METAR-TAF: